createdAt,value
2019-04-01T00:01:44.073Z,7.87
2019-04-01T00:04:12.284Z,8.78
2019-04-01T00:06:40.540Z,8.68
2019-04-01T00:09:08.836Z,8.13
2019-04-01T00:11:37.056Z,8.65
2019-04-01T00:14:05.260Z,8.60
2019-04-01T00:16:33.479Z,7.95
2019-04-01T00:19:03.321Z,8.53
2019-04-01T00:21:31.638Z,8.28
2019-04-01T00:23:59.862Z,8.60
2019-04-01T00:26:28.089Z,7.85
2019-04-01T00:28:56.316Z,8.45
2019-04-01T00:31:24.524Z,9.35
2019-04-01T00:33:52.757Z,8.13
2019-04-01T00:36:20.993Z,8.53
2019-04-01T00:38:49.264Z,7.90
2019-04-01T00:41:17.479Z,7.90
2019-04-01T00:43:47.348Z,9.00
2019-04-01T00:46:17.404Z,8.35
2019-04-01T00:48:45.664Z,8.15
2019-04-01T00:51:13.876Z,8.53
2019-04-01T00:53:42.085Z,8.30
2019-04-01T00:56:10.310Z,8.65
2019-04-01T00:58:38.506Z,8.33
2019-04-01T01:01:06.745Z,8.50
2019-04-01T01:03:35.101Z,9.33
2019-04-01T01:06:03.308Z,7.78
2019-04-01T01:08:31.540Z,9.53
2019-04-01T01:10:59.782Z,8.15
2019-04-01T01:13:28.013Z,8.45
2019-04-01T01:15:56.255Z,8.75
2019-04-01T01:18:24.529Z,8.58
2019-04-01T01:20:52.747Z,8.23
2019-04-01T01:23:21.041Z,8.70
2019-04-01T01:25:49.256Z,7.87
2019-04-01T01:28:17.509Z,8.65
2019-04-01T01:30:45.716Z,8.38
2019-04-01T01:33:13.940Z,8.03
2019-04-01T01:35:42.220Z,8.18
2019-04-01T01:38:10.430Z,8.40
2019-04-01T01:40:38.725Z,8.30
2019-04-01T01:43:06.946Z,8.80
2019-04-01T01:45:35.235Z,8.73
2019-04-01T01:48:03.455Z,8.98
2019-04-01T01:50:31.669Z,8.23
2019-04-01T01:53:00.001Z,8.98
2019-04-01T01:55:28.251Z,9.23
2019-04-01T01:57:56.501Z,8.23
2019-04-01T02:00:26.388Z,9.15
2019-04-01T02:02:54.621Z,8.93
2019-04-01T02:05:26.148Z,9.15
2019-04-01T02:07:54.543Z,9.40
2019-04-01T02:10:22.747Z,9.45
2019-04-01T02:12:50.948Z,9.45
2019-04-01T02:15:19.209Z,9.70
2019-04-01T02:17:47.454Z,9.30
2019-04-01T02:20:15.688Z,9.18
2019-04-01T02:22:43.923Z,9.10
2019-04-01T02:25:12.125Z,9.95
2019-04-01T02:27:40.346Z,10.10
2019-04-01T02:30:08.571Z,9.58
2019-04-01T02:32:36.780Z,9.43
2019-04-01T02:35:05.888Z,11.97
2019-04-01T02:37:34.099Z,12.43
2019-04-01T02:40:02.336Z,10.70
2019-04-01T02:42:30.573Z,9.93
2019-04-01T02:44:58.784Z,8.93
2019-04-01T02:47:27.006Z,9.18
2019-04-01T02:49:55.225Z,8.60
2019-04-01T02:52:23.446Z,8.45
2019-04-01T02:54:51.662Z,9.50
2019-04-01T02:57:19.899Z,9.18
2019-04-01T02:59:48.117Z,8.90
2019-04-01T03:02:16.397Z,8.60
2019-04-01T03:04:44.622Z,9.45
2019-04-01T03:07:12.835Z,8.13
2019-04-01T03:09:41.061Z,7.75
2019-04-01T03:12:09.282Z,8.33
2019-04-01T03:14:37.505Z,8.43
2019-04-01T03:17:06.450Z,8.30
2019-04-01T03:19:34.682Z,8.28
2019-04-01T03:22:02.893Z,7.58
2019-04-01T03:24:31.146Z,7.42
2019-04-01T03:26:59.447Z,7.65
2019-04-01T03:29:27.683Z,8.08
2019-04-01T03:31:55.908Z,8.70
2019-04-01T03:34:25.460Z,7.75
2019-04-01T03:36:55.054Z,8.08
2019-04-01T03:39:23.287Z,7.83
2019-04-01T03:41:51.992Z,7.35
2019-04-01T03:44:20.207Z,8.03
2019-04-01T03:46:48.437Z,6.80
2019-04-01T03:49:16.650Z,6.42
2019-04-01T03:51:44.950Z,6.78
2019-04-01T03:54:13.235Z,6.35
2019-04-01T03:56:41.437Z,6.58
2019-04-01T03:59:09.638Z,6.87
2019-04-01T04:01:37.851Z,6.03
2019-04-01T04:04:06.078Z,6.05
2019-04-01T04:06:34.280Z,6.10
2019-04-01T04:09:03.677Z,5.62
2019-04-01T04:11:31.868Z,5.40
2019-04-01T04:14:00.089Z,5.17
2019-04-01T04:16:28.373Z,5.10
2019-04-01T04:18:56.590Z,5.33
2019-04-01T04:21:24.801Z,5.28
2019-04-01T04:23:53.002Z,5.45
2019-04-01T04:26:21.240Z,5.35
2019-04-01T04:28:49.447Z,5.97
2019-04-01T04:31:17.644Z,5.20
2019-04-01T04:33:45.872Z,6.03
2019-04-01T04:36:14.081Z,7.58
2019-04-01T04:38:42.279Z,8.45
2019-04-01T04:41:10.562Z,6.83
2019-04-01T04:43:38.769Z,6.65
2019-04-01T04:46:06.969Z,6.55
2019-04-01T04:48:35.242Z,8.15
2019-04-01T04:51:03.425Z,6.15
2019-04-01T04:53:31.624Z,5.87
2019-04-01T04:55:59.848Z,5.30
2019-04-01T04:58:28.066Z,5.00
2019-04-01T05:00:56.256Z,5.15
2019-04-01T05:03:24.464Z,4.70
2019-04-01T05:05:52.853Z,5.08
2019-04-01T05:08:21.072Z,5.37
2019-04-01T05:10:49.265Z,4.42
2019-04-01T05:13:17.489Z,4.60
2019-04-01T05:15:45.698Z,5.85
2019-04-01T05:18:13.960Z,5.67
2019-04-01T05:20:42.171Z,4.83
2019-04-01T05:23:10.368Z,4.40
2019-04-01T05:25:38.579Z,5.35
2019-04-01T05:28:06.797Z,4.08
2019-04-01T05:30:36.837Z,4.67
2019-04-01T05:33:05.138Z,4.50
2019-04-01T05:35:34.964Z,4.12
2019-04-01T05:38:04.228Z,4.28
2019-04-01T05:40:32.428Z,4.03
2019-04-01T05:43:00.674Z,4.10
2019-04-01T05:45:28.859Z,3.80
2019-04-01T05:47:57.347Z,3.95
2019-04-01T05:50:25.564Z,3.77
2019-04-01T05:52:53.776Z,3.90
2019-04-01T05:55:21.976Z,3.80
2019-04-01T05:57:50.185Z,3.90
2019-04-01T06:00:20.957Z,3.95
2019-04-01T06:02:49.407Z,3.00
2019-04-01T06:05:17.664Z,3.60
2019-04-01T06:07:45.874Z,3.12
2019-04-01T06:10:14.071Z,3.58
2019-04-01T06:12:42.556Z,3.52
2019-04-01T06:15:10.781Z,3.60
2019-04-01T06:17:38.999Z,3.40
2019-04-01T06:20:07.280Z,3.98
2019-04-01T06:22:35.472Z,3.62
2019-04-01T06:25:04.728Z,5.60
2019-04-01T06:27:33.231Z,4.05
2019-04-01T06:30:01.656Z,4.22
2019-04-01T06:32:29.853Z,3.45
2019-04-01T06:34:58.068Z,3.70
2019-04-01T06:37:26.299Z,3.60
2019-04-01T06:39:54.527Z,3.87
2019-04-01T06:42:22.733Z,3.62
2019-04-01T06:44:50.944Z,3.87
2019-04-01T06:47:19.440Z,2.72
2019-04-01T06:49:47.657Z,3.87
2019-04-01T06:52:15.862Z,3.30
2019-04-01T06:54:44.077Z,3.08
2019-04-01T06:57:12.276Z,3.60
2019-04-01T06:59:40.471Z,2.90
2019-04-01T07:02:08.696Z,3.17
2019-04-01T07:04:36.903Z,2.90
2019-04-01T07:07:18.330Z,3.22
2019-04-01T07:09:35.118Z,3.10
2019-04-01T07:12:03.338Z,3.02
2019-04-01T07:14:31.548Z,2.92
2019-04-01T07:16:59.782Z,2.90
2019-04-01T07:19:27.979Z,3.22
2019-04-01T07:21:56.244Z,3.15
2019-04-01T07:24:24.477Z,3.40
2019-04-01T07:26:52.682Z,3.12
2019-04-01T07:29:20.902Z,3.33
2019-04-01T07:31:49.108Z,3.20
2019-04-01T07:34:17.336Z,3.10
2019-04-01T07:36:45.537Z,3.30
2019-04-01T07:39:13.745Z,3.22
2019-04-01T07:41:41.954Z,3.25
2019-04-01T07:44:10.335Z,3.27
2019-04-01T07:46:38.608Z,2.83
2019-04-01T07:49:06.808Z,2.80
2019-04-01T07:51:38.292Z,3.77
2019-04-01T07:54:04.964Z,3.90
2019-04-01T07:56:33.172Z,3.22
2019-04-01T07:59:01.376Z,3.05
2019-04-01T08:01:29.597Z,3.20
2019-04-01T08:03:57.808Z,3.00
2019-04-01T08:06:26.023Z,3.55
2019-04-01T08:08:54.224Z,2.62
2019-04-01T08:11:22.436Z,3.02
2019-04-01T08:13:50.712Z,3.50
2019-04-01T08:16:18.928Z,3.15
2019-04-01T08:18:47.152Z,3.30
2019-04-01T08:21:15.350Z,2.90
2019-04-01T08:23:43.547Z,3.15
2019-04-01T08:26:11.811Z,3.33
2019-04-01T08:28:40.018Z,3.12
2019-04-01T08:31:08.232Z,3.37
2019-04-01T08:33:36.436Z,3.10
2019-04-01T08:36:04.660Z,3.65
2019-04-01T08:38:32.876Z,3.37
2019-04-01T08:41:01.659Z,3.33
2019-04-01T08:43:30.021Z,3.60
2019-04-01T08:45:58.236Z,3.50
2019-04-01T08:48:26.463Z,3.52
2019-04-01T08:50:54.673Z,4.33
2019-04-01T08:53:22.889Z,3.40
2019-04-01T08:55:51.107Z,3.80
2019-04-01T08:58:19.593Z,3.70
2019-04-01T09:00:47.877Z,4.05
2019-04-01T09:03:16.084Z,4.17
2019-04-01T09:05:44.348Z,4.50
2019-04-01T09:08:12.686Z,4.70
2019-04-01T09:10:41.266Z,4.53
2019-04-01T09:13:09.491Z,3.95
2019-04-01T09:15:37.700Z,3.85
2019-04-01T09:18:05.935Z,3.75
2019-04-01T09:20:34.143Z,4.15
2019-04-01T09:23:02.391Z,4.33
2019-04-01T09:25:30.646Z,4.37
2019-04-01T09:27:58.876Z,4.28
2019-04-01T09:30:27.136Z,4.60
2019-04-01T09:32:55.343Z,4.92
2019-04-01T09:35:23.586Z,4.47
2019-04-01T09:37:51.798Z,4.42
2019-04-01T09:40:20.013Z,4.65
2019-04-01T09:42:48.230Z,5.28
2019-04-01T09:45:16.456Z,5.15
2019-04-01T09:47:44.796Z,5.33
2019-04-01T09:50:13.249Z,5.75
2019-04-01T09:52:41.569Z,5.92
2019-04-01T09:55:09.827Z,5.10
2019-04-01T09:57:38.069Z,5.40
2019-04-01T10:00:08.145Z,5.65
2019-04-01T10:02:36.453Z,5.72
2019-04-01T10:05:06.604Z,5.35
2019-04-01T10:10:02.613Z,5.70
2019-04-01T10:12:30.831Z,7.20
2019-04-01T10:14:59.103Z,6.45
2019-04-01T10:17:27.338Z,6.50
2019-04-01T10:19:55.557Z,6.62
2019-04-01T10:22:23.776Z,6.47
2019-04-01T10:24:52.059Z,6.97
2019-04-01T10:27:20.285Z,6.67
2019-04-01T10:29:48.507Z,6.87
2019-04-01T10:32:16.727Z,7.72
2019-04-01T10:34:44.932Z,6.87
2019-04-01T10:37:13.169Z,6.97
2019-04-01T10:39:41.374Z,7.33
2019-04-01T10:42:09.591Z,7.53
2019-04-01T10:44:37.813Z,7.33
2019-04-01T10:47:06.051Z,8.10
2019-04-01T10:49:34.449Z,7.65
2019-04-01T10:52:02.739Z,14.05
2019-04-01T10:54:30.945Z,8.28
2019-04-01T10:56:59.545Z,8.98
2019-04-01T10:59:27.767Z,7.97
2019-04-01T11:01:56.052Z,8.58
2019-04-01T11:04:24.434Z,8.30
2019-04-01T11:06:52.665Z,8.58
2019-04-01T11:09:20.996Z,8.93
2019-04-01T11:11:49.249Z,8.00
2019-04-01T11:14:17.462Z,7.97
2019-04-01T11:16:46.229Z,8.50
2019-04-01T11:19:14.781Z,9.95
2019-04-01T11:21:43.005Z,9.63
2019-04-01T11:24:11.220Z,8.48
2019-04-01T11:26:39.445Z,9.90
2019-04-01T11:29:07.652Z,9.78
2019-04-01T11:31:35.921Z,9.68
2019-04-01T11:34:04.216Z,10.40
2019-04-01T11:36:32.480Z,8.93
2019-04-01T11:39:00.730Z,9.78
2019-04-01T11:41:29.016Z,9.28
2019-04-01T11:43:57.308Z,9.53
2019-04-01T11:46:25.581Z,9.00
2019-04-01T11:48:53.772Z,10.48
2019-04-01T11:51:32.546Z,9.38
2019-04-01T11:53:51.942Z,11.08
2019-04-01T11:56:20.159Z,10.68
2019-04-01T11:58:48.367Z,10.30
2019-04-01T12:01:16.588Z,10.72
2019-04-01T12:03:44.802Z,11.38
2019-04-01T12:06:13.101Z,10.48
2019-04-01T12:08:41.328Z,11.03
2019-04-01T12:11:09.548Z,10.23
2019-04-01T12:13:37.756Z,11.15
2019-04-01T12:16:06.874Z,10.05
2019-04-01T12:18:35.376Z,10.13
2019-04-01T12:21:03.585Z,8.18
2019-04-01T12:23:31.808Z,10.35
2019-04-01T12:26:13.981Z,9.90
2019-04-01T12:28:29.964Z,9.40
2019-04-01T12:30:58.178Z,10.90
2019-04-01T12:33:26.667Z,10.70
2019-04-01T12:35:55.026Z,11.10
2019-04-01T12:38:23.236Z,10.98
2019-04-01T12:40:51.453Z,10.45
2019-04-01T12:43:23.306Z,10.43
2019-04-01T12:45:49.603Z,10.58
2019-04-01T12:48:17.817Z,10.80
2019-04-01T12:50:46.036Z,11.18
2019-04-01T12:53:14.251Z,10.75
2019-04-01T12:55:44.966Z,10.55
2019-04-01T12:58:12.405Z,10.55
2019-04-01T13:00:40.635Z,10.50
2019-04-01T13:03:08.860Z,10.20
2019-04-01T13:05:37.138Z,10.40
2019-04-01T13:08:05.376Z,11.43
2019-04-01T13:10:33.601Z,9.98
2019-04-01T13:13:01.841Z,10.10
2019-04-01T13:15:30.091Z,10.40
2019-04-01T13:17:58.538Z,9.98
2019-04-01T13:20:37.804Z,10.40
2019-04-01T13:22:56.729Z,10.68
2019-04-01T13:25:25.061Z,10.63
2019-04-01T13:27:53.285Z,10.30
2019-04-01T13:30:24.104Z,10.15
2019-04-01T13:32:51.492Z,9.40
2019-04-01T13:35:19.736Z,9.80
2019-04-01T13:37:49.436Z,9.80
2019-04-01T13:40:19.546Z,9.93
2019-04-01T13:45:15.288Z,9.63
2019-04-01T13:47:43.542Z,10.65
2019-04-01T13:50:11.750Z,10.45
2019-04-01T13:52:40.056Z,9.88
2019-04-01T13:55:11.367Z,8.90
2019-04-01T13:57:39.573Z,9.63
2019-04-01T14:00:07.793Z,9.03
2019-04-01T14:02:36.158Z,10.40
2019-04-01T14:05:06.429Z,8.90
2019-04-01T14:07:34.758Z,8.78
2019-04-01T14:10:03.891Z,9.48
2019-04-01T14:12:32.105Z,9.40
2019-04-01T14:15:00.350Z,9.23
2019-04-01T14:17:28.575Z,10.00
2019-04-01T14:19:57.013Z,10.72
2019-04-01T14:22:25.238Z,9.88
2019-04-01T14:24:53.445Z,10.40
2019-04-01T14:27:21.656Z,9.65
2019-04-01T14:29:49.884Z,9.55
2019-04-01T14:32:19.913Z,10.43
2019-04-01T14:34:50.299Z,10.40
2019-04-01T14:37:25.149Z,9.85
2019-04-01T14:39:50.406Z,9.68
2019-04-01T14:42:18.064Z,9.58
2019-04-01T14:44:58.276Z,9.85
2019-04-01T14:47:26.922Z,9.65
2019-04-01T14:49:55.295Z,10.35
2019-04-01T14:52:32.330Z,9.28
2019-04-01T14:54:55.155Z,9.30
2019-04-01T14:57:23.690Z,10.00
2019-04-01T14:59:52.037Z,9.35
2019-04-01T15:02:20.352Z,9.78
2019-04-01T15:04:48.560Z,9.35
2019-04-01T15:07:18.298Z,10.93
2019-04-01T15:09:46.922Z,9.33
2019-04-01T15:12:15.324Z,9.85
2019-04-01T15:14:43.557Z,10.05
2019-04-01T15:17:11.816Z,9.48
2019-04-01T15:19:40.171Z,9.78
2019-04-01T15:22:08.429Z,10.15
2019-04-01T15:24:37.020Z,9.85
2019-04-01T15:27:05.256Z,10.18
2019-04-01T15:29:33.469Z,10.28
2019-04-01T15:32:01.701Z,10.32
2019-04-01T15:34:29.903Z,8.95
2019-04-01T15:36:58.119Z,10.15
2019-04-01T15:39:32.365Z,10.88
2019-04-01T15:42:00.723Z,10.50
2019-04-01T15:44:29.433Z,10.05
2019-04-01T15:46:57.820Z,9.68
2019-04-01T15:49:26.199Z,9.55
2019-04-01T15:51:54.738Z,9.80
2019-04-01T15:54:23.049Z,9.58
2019-04-01T15:56:51.368Z,10.30
2019-04-01T15:59:19.674Z,10.30
2019-04-01T16:01:47.945Z,10.08
2019-04-01T16:04:16.510Z,9.25
2019-04-01T16:06:44.954Z,9.60
2019-04-01T16:09:14.904Z,10.43
2019-04-01T16:11:43.190Z,9.43
2019-04-01T16:14:11.613Z,9.83
2019-04-01T16:16:39.951Z,9.70
2019-04-01T16:19:08.173Z,10.50
2019-04-01T16:21:36.382Z,9.20
2019-04-01T16:24:04.617Z,9.75
2019-04-01T16:26:32.828Z,8.88
2019-04-01T16:29:01.035Z,9.50
2019-04-01T16:31:29.253Z,9.50
2019-04-01T16:33:57.458Z,9.40
2019-04-01T16:36:25.672Z,9.95
2019-04-01T16:38:53.876Z,9.85
2019-04-01T16:41:22.092Z,9.35
2019-04-01T16:43:50.310Z,9.25
2019-04-01T16:46:18.520Z,8.75
2019-04-01T16:48:46.736Z,9.48
2019-04-01T16:51:15.045Z,9.48
2019-04-01T16:53:44.503Z,8.40
2019-04-01T16:56:12.845Z,9.43
2019-04-01T16:58:41.059Z,8.68
2019-04-01T17:01:09.260Z,8.78
2019-04-01T17:03:37.477Z,9.43
2019-04-01T17:06:05.752Z,8.73
2019-04-01T17:08:33.974Z,8.85
2019-04-01T17:11:02.238Z,8.80
2019-04-01T17:13:30.769Z,8.75
2019-04-01T17:16:01.526Z,8.70
2019-04-01T17:18:29.033Z,8.48
2019-04-01T17:20:57.243Z,8.25
2019-04-01T17:23:28.165Z,8.30
2019-04-01T17:25:55.384Z,7.97
2019-04-01T17:28:23.599Z,9.00
2019-04-01T17:30:51.817Z,9.20
2019-04-01T17:33:20.039Z,9.73
2019-04-01T17:35:48.254Z,9.68
2019-04-01T17:38:16.468Z,8.88
2019-04-01T17:40:46.863Z,8.88
2019-04-01T17:43:16.239Z,9.25
2019-04-01T17:45:44.671Z,9.08
2019-04-01T17:48:12.887Z,9.40
2019-04-01T17:50:41.100Z,10.43
2019-04-01T17:53:09.583Z,9.98
2019-04-01T17:55:37.818Z,11.05
2019-04-01T17:58:06.404Z,12.70
2019-04-01T18:00:36.285Z,12.30
2019-04-01T18:03:05.106Z,17.30
2019-04-01T18:05:33.793Z,30.88
2019-04-01T18:08:02.085Z,19.02
2019-04-01T18:10:30.313Z,18.87
2019-04-01T18:12:58.552Z,17.75
2019-04-01T18:15:26.760Z,15.35
2019-04-01T18:17:55.012Z,13.30
2019-04-01T18:20:23.313Z,8.93
2019-04-01T18:22:51.601Z,8.88
2019-04-01T18:25:20.971Z,8.43
2019-04-01T18:27:49.810Z,8.50
2019-04-01T18:30:18.075Z,7.97
2019-04-01T18:32:46.301Z,7.83
2019-04-01T18:35:14.525Z,8.73
2019-04-01T18:37:42.754Z,8.38
2019-04-01T18:40:11.044Z,8.53
2019-04-01T18:42:39.260Z,9.33
2019-04-01T18:45:07.523Z,8.05
2019-04-01T18:47:38.792Z,9.33
2019-04-01T18:50:06.217Z,8.65
2019-04-01T18:52:34.420Z,8.75
2019-04-01T18:55:03.001Z,9.15
2019-04-01T18:57:31.226Z,9.68
2019-04-01T18:59:59.452Z,8.85
2019-04-01T19:02:27.684Z,8.18
2019-04-01T19:04:55.952Z,8.85
2019-04-01T19:07:24.170Z,8.53
2019-04-01T19:10:05.267Z,10.13
2019-04-01T19:12:22.344Z,8.23
2019-04-01T19:14:50.616Z,9.28
2019-04-01T19:17:20.571Z,8.70
2019-04-01T19:19:48.899Z,9.08
2019-04-01T19:22:17.103Z,8.53
2019-04-01T19:24:45.343Z,8.23
2019-04-01T19:27:13.652Z,9.50
2019-04-01T19:29:43.009Z,9.13
2019-04-01T19:32:14.592Z,9.38
2019-04-01T19:34:42.105Z,8.85
2019-04-01T19:37:10.378Z,8.53
2019-04-01T19:39:39.561Z,8.88
2019-04-01T19:42:07.803Z,9.53
2019-04-01T19:44:36.044Z,8.70
2019-04-01T19:47:04.275Z,10.98
2019-04-01T19:49:33.128Z,12.50
2019-04-01T19:52:01.786Z,16.15
2019-04-01T19:54:33.565Z,17.95
2019-04-01T19:56:59.957Z,17.82
2019-04-01T19:59:28.164Z,14.83
2019-04-01T20:01:58.108Z,11.80
2019-04-01T20:04:26.342Z,10.03
2019-04-01T20:06:54.532Z,11.68
2019-04-01T20:09:22.755Z,13.55
2019-04-01T20:11:50.970Z,13.00
2019-04-01T20:14:19.173Z,9.20
2019-04-01T20:16:47.406Z,9.15
2019-04-01T20:19:15.621Z,9.85
2019-04-01T20:21:43.854Z,9.83
2019-04-01T20:24:12.118Z,9.73
2019-04-01T20:26:40.322Z,10.18
2019-04-01T20:29:08.532Z,13.20
2019-04-01T20:31:37.221Z,10.53
2019-04-01T20:34:18.758Z,10.25
2019-04-01T20:36:36.385Z,10.43
2019-04-01T20:39:07.185Z,9.58
2019-04-01T20:41:35.406Z,10.10
2019-04-01T20:44:03.621Z,10.93
2019-04-01T20:46:31.827Z,10.90
2019-04-01T20:49:00.036Z,10.80
2019-04-01T20:51:28.248Z,10.70
2019-04-01T20:53:56.456Z,11.30
2019-04-01T20:56:24.669Z,11.28
2019-04-01T20:58:55.675Z,11.48
2019-04-01T21:01:23.212Z,11.55
2019-04-01T21:03:51.427Z,10.30
2019-04-01T21:06:19.671Z,11.33
2019-04-01T21:08:47.891Z,10.58
2019-04-01T21:11:16.100Z,10.48
2019-04-01T21:13:44.389Z,10.98
2019-04-01T21:16:12.603Z,11.05
2019-04-01T21:18:40.840Z,9.88
2019-04-01T21:21:10.289Z,9.78
2019-04-01T21:23:38.579Z,10.50
2019-04-01T21:26:06.793Z,10.65
2019-04-01T21:28:35.015Z,10.45
2019-04-01T21:31:03.225Z,10.00
2019-04-01T21:33:31.461Z,10.95
2019-04-01T21:35:59.662Z,9.55
2019-04-01T21:38:27.867Z,10.45
2019-04-01T21:40:56.447Z,10.25
2019-04-01T21:43:25.172Z,9.93
2019-04-01T21:45:53.388Z,10.00
2019-04-01T21:48:21.605Z,10.90
2019-04-01T21:50:49.816Z,9.50
2019-04-01T21:53:18.025Z,10.28
2019-04-01T21:55:46.251Z,10.60
2019-04-01T21:58:14.453Z,10.90
2019-04-01T22:00:53.276Z,9.73
2019-04-01T22:03:21.490Z,10.95
2019-04-01T22:05:49.705Z,10.72
2019-04-01T22:08:17.912Z,10.60
2019-04-01T22:10:46.299Z,10.90
2019-04-01T22:13:14.532Z,10.10
2019-04-01T22:15:42.734Z,10.18
2019-04-01T22:18:10.952Z,10.58
2019-04-01T22:20:41.307Z,10.00
2019-04-01T22:23:09.157Z,9.85
2019-04-01T22:25:37.365Z,10.82
2019-04-01T22:28:05.589Z,10.38
2019-04-01T22:30:33.789Z,9.98
2019-04-01T22:33:01.988Z,10.50
2019-04-01T22:35:38.467Z,10.63
2019-04-01T22:38:00.158Z,11.08
2019-04-01T22:40:28.406Z,11.08
2019-04-01T22:42:56.662Z,10.95
2019-04-01T22:45:24.881Z,10.45
2019-04-01T22:47:53.088Z,10.68
2019-04-01T22:50:21.304Z,11.08
2019-04-01T22:52:49.524Z,11.57
2019-04-01T22:55:17.740Z,10.65
2019-04-01T22:57:45.949Z,10.23
2019-04-01T23:00:14.227Z,11.48
2019-04-01T23:02:42.844Z,11.75
2019-04-01T23:05:11.334Z,11.65
2019-04-01T23:07:39.586Z,10.95
2019-04-01T23:10:07.763Z,11.35
2019-04-01T23:12:35.982Z,10.90
2019-04-01T23:15:06.437Z,10.63
2019-04-01T23:17:34.736Z,11.83
2019-04-01T23:20:03.536Z,12.10
2019-04-01T23:22:32.305Z,11.43
2019-04-01T23:25:00.554Z,11.85
2019-04-01T23:27:28.757Z,11.60
2019-04-01T23:29:56.965Z,12.43
2019-04-01T23:32:25.176Z,10.78
2019-04-01T23:34:53.407Z,11.22
2019-04-01T23:37:21.618Z,12.37
2019-04-01T23:39:49.823Z,11.70
2019-04-01T23:42:18.040Z,12.25
2019-04-01T23:44:46.255Z,12.33
2019-04-01T23:47:15.256Z,12.40
2019-04-01T23:49:44.489Z,11.70
2019-04-01T23:52:12.684Z,11.22
2019-04-01T23:54:40.893Z,11.28
2019-04-01T23:57:09.124Z,11.88
2019-04-01T23:59:37.310Z,11.03
